sensor_id;sensor_type;location;lat;lon;timestamp;temperature;humidity
70839;DHT22;58464;52.298;4.852;2022-11-20T00:00:27;0.56;76.46
70839;DHT22;58464;52.298;4.852;2022-11-20T00:02:52;0.56;76.49
70839;DHT22;58464;52.298;4.852;2022-11-20T00:05:18;0.52;76.23
70839;DHT22;58464;52.298;4.852;2022-11-20T00:07:44;0.58;78.35
70839;DHT22;58464;52.298;4.852;2022-11-20T00:10:10;0.67;77.73
70839;DHT22;58464;52.298;4.852;2022-11-20T00:12:35;0.65;77.62
70839;DHT22;58464;52.298;4.852;2022-11-20T00:15:00;0.67;77.42
70839;DHT22;58464;52.298;4.852;2022-11-20T00:17:26;0.49;76.67
70839;DHT22;58464;52.298;4.852;2022-11-20T00:19:51;0.43;76.73
70839;DHT22;58464;52.298;4.852;2022-11-20T00:22:18;0.40;77.28
70839;DHT22;58464;52.298;4.852;2022-11-20T00:24:44;0.33;77.21
70839;DHT22;58464;52.298;4.852;2022-11-20T00:27:09;0.32;77.42
70839;DHT22;58464;52.298;4.852;2022-11-20T00:29:36;0.23;77.01
70839;DHT22;58464;52.298;4.852;2022-11-20T00:32:02;0.34;76.97
70839;DHT22;58464;52.298;4.852;2022-11-20T00:34:27;0.33;76.40
70839;DHT22;58464;52.298;4.852;2022-11-20T00:36:52;0.32;76.10
70839;DHT22;58464;52.298;4.852;2022-11-20T00:39:18;0.36;76.36
70839;DHT22;58464;52.298;4.852;2022-11-20T00:41:43;0.27;75.81
70839;DHT22;58464;52.298;4.852;2022-11-20T00:44:09;0.19;75.28
70839;DHT22;58464;52.298;4.852;2022-11-20T00:46:34;0.27;75.63
70839;DHT22;58464;52.298;4.852;2022-11-20T00:49:00;0.29;75.52
70839;DHT22;58464;52.298;4.852;2022-11-20T00:51:26;0.27;75.09
70839;DHT22;58464;52.298;4.852;2022-11-20T00:53:54;0.23;75.85
70839;DHT22;58464;52.298;4.852;2022-11-20T00:56:20;0.20;75.81
70839;DHT22;58464;52.298;4.852;2022-11-20T00:58:47;0.15;75.95
70839;DHT22;58464;52.298;4.852;2022-11-20T01:01:18;0.22;76.18
70839;DHT22;58464;52.298;4.852;2022-11-20T01:03:48;0.22;77.60
70839;DHT22;58464;52.298;4.852;2022-11-20T01:06:19;0.32;78.49
70839;DHT22;58464;52.298;4.852;2022-11-20T01:08:45;0.49;78.79
70839;DHT22;58464;52.298;4.852;2022-11-20T01:11:14;0.46;77.97
70839;DHT22;58464;52.298;4.852;2022-11-20T01:13:39;0.40;77.60
70839;DHT22;58464;52.298;4.852;2022-11-20T01:16:12;0.20;77.12
70839;DHT22;58464;52.298;4.852;2022-11-20T01:18:39;0.13;77.49
70839;DHT22;58464;52.298;4.852;2022-11-20T01:21:06;0.13;77.38
70839;DHT22;58464;52.298;4.852;2022-11-20T01:23:38;0.09;77.34
70839;DHT22;58464;52.298;4.852;2022-11-20T01:26:05;0.07;77.31
70839;DHT22;58464;52.298;4.852;2022-11-20T01:28:31;0.10;77.67
70839;DHT22;58464;52.298;4.852;2022-11-20T01:30:57;0.07;77.20
70839;DHT22;58464;52.298;4.852;2022-11-20T01:33:23;0.07;77.16
70839;DHT22;58464;52.298;4.852;2022-11-20T01:35:48;0.09;78.19
70839;DHT22;58464;52.298;4.852;2022-11-20T01:38:15;0.12;77.89
70839;DHT22;58464;52.298;4.852;2022-11-20T01:40:41;0.09;77.97
70839;DHT22;58464;52.298;4.852;2022-11-20T01:43:17;0.05;77.39
70839;DHT22;58464;52.298;4.852;2022-11-20T01:46:19;0.12;77.79
70839;DHT22;58464;52.298;4.852;2022-11-20T01:48:50;0.23;77.73
70839;DHT22;58464;52.298;4.852;2022-11-20T01:53:50;0.37;78.01
70839;DHT22;58464;52.298;4.852;2022-11-20T01:56:17;0.33;76.79
70839;DHT22;58464;52.298;4.852;2022-11-20T01:58:48;0.19;76.76
70839;DHT22;58464;52.298;4.852;2022-11-20T02:01:15;0.10;76.97
70839;DHT22;58464;52.298;4.852;2022-11-20T02:03:41;0.03;76.60
70839;DHT22;58464;52.298;4.852;2022-11-20T02:06:24;0.12;78.40
70839;DHT22;58464;52.298;4.852;2022-11-20T02:08:51;0.15;78.16
70839;DHT22;58464;52.298;4.852;2022-11-20T02:11:16;0.19;78.04
70839;DHT22;58464;52.298;4.852;2022-11-20T02:13:42;0.26;78.75
70839;DHT22;58464;52.298;4.852;2022-11-20T02:16:35;0.29;78.67
70839;DHT22;58464;52.298;4.852;2022-11-20T02:19:04;0.37;78.79
70839;DHT22;58464;52.298;4.852;2022-11-20T02:21:38;0.46;79.17
70839;DHT22;58464;52.298;4.852;2022-11-20T02:24:09;0.32;77.90
70839;DHT22;58464;52.298;4.852;2022-11-20T02:26:41;0.29;78.54
70839;DHT22;58464;52.298;4.852;2022-11-20T02:29:07;0.22;78.83
70839;DHT22;58464;52.298;4.852;2022-11-20T02:31:37;0.34;78.83
70839;DHT22;58464;52.298;4.852;2022-11-20T02:34:03;0.30;77.81
70839;DHT22;58464;52.298;4.852;2022-11-20T02:36:30;0.33;78.14
70839;DHT22;58464;52.298;4.852;2022-11-20T02:38:58;0.36;78.34
70839;DHT22;58464;52.298;4.852;2022-11-20T02:41:34;0.42;79.24
70839;DHT22;58464;52.298;4.852;2022-11-20T02:44:01;0.53;78.72
70839;DHT22;58464;52.298;4.852;2022-11-20T02:46:27;0.63;79.20
70839;DHT22;58464;52.298;4.852;2022-11-20T02:48:52;0.63;79.42
70839;DHT22;58464;52.298;4.852;2022-11-20T02:51:18;0.53;78.60
70839;DHT22;58464;52.298;4.852;2022-11-20T02:53:43;0.46;79.22
70839;DHT22;58464;52.298;4.852;2022-11-20T02:56:08;0.43;78.96
70839;DHT22;58464;52.298;4.852;2022-11-20T02:58:34;0.43;79.05
70839;DHT22;58464;52.298;4.852;2022-11-20T03:00:59;0.34;78.29
70839;DHT22;58464;52.298;4.852;2022-11-20T03:03:25;0.39;79.31
70839;DHT22;58464;52.298;4.852;2022-11-20T03:05:50;0.39;78.62
70839;DHT22;58464;52.298;4.852;2022-11-20T03:08:15;0.23;78.41
70839;DHT22;58464;52.298;4.852;2022-11-20T03:10:40;0.20;77.48
70839;DHT22;58464;52.298;4.852;2022-11-20T03:13:06;0.33;78.65
70839;DHT22;58464;52.298;4.852;2022-11-20T03:15:31;0.32;78.37
70839;DHT22;58464;52.298;4.852;2022-11-20T03:17:56;0.42;79.04
70839;DHT22;58464;52.298;4.852;2022-11-20T03:20:22;0.29;78.04
70839;DHT22;58464;52.298;4.852;2022-11-20T03:22:48;0.42;78.64
70839;DHT22;58464;52.298;4.852;2022-11-20T03:25:13;0.42;78.61
70839;DHT22;58464;52.298;4.852;2022-11-20T03:27:39;0.27;78.04
70839;DHT22;58464;52.298;4.852;2022-11-20T03:30:04;0.26;78.64
70839;DHT22;58464;52.298;4.852;2022-11-20T03:32:30;0.25;79.27
70839;DHT22;58464;52.298;4.852;2022-11-20T03:34:56;0.30;80.09
70839;DHT22;58464;52.298;4.852;2022-11-20T03:37:21;0.16;79.06
70839;DHT22;58464;52.298;4.852;2022-11-20T03:39:47;0.25;79.43
70839;DHT22;58464;52.298;4.852;2022-11-20T03:42:12;0.25;80.17
70839;DHT22;58464;52.298;4.852;2022-11-20T03:44:56;0.30;80.04
70839;DHT22;58464;52.298;4.852;2022-11-20T03:47:21;0.40;81.39
70839;DHT22;58464;52.298;4.852;2022-11-20T03:49:47;0.22;80.36
70839;DHT22;58464;52.298;4.852;2022-11-20T03:52:12;0.12;79.96
70839;DHT22;58464;52.298;4.852;2022-11-20T03:54:38;0.16;81.04
70839;DHT22;58464;52.298;4.852;2022-11-20T03:57:03;0.10;81.42
70839;DHT22;58464;52.298;4.852;2022-11-20T03:59:28;0.09;81.40
70839;DHT22;58464;52.298;4.852;2022-11-20T04:01:54;0.06;81.42
70839;DHT22;58464;52.298;4.852;2022-11-20T04:04:19;0.01;81.41
70839;DHT22;58464;52.298;4.852;2022-11-20T04:06:44;0.06;82.13
70839;DHT22;58464;52.298;4.852;2022-11-20T04:09:10;0.05;81.70
70839;DHT22;58464;52.298;4.852;2022-11-20T04:11:37;-0.01;81.33
70839;DHT22;58464;52.298;4.852;2022-11-20T04:14:05;0.01;82.21
70839;DHT22;58464;52.298;4.852;2022-11-20T04:16:33;-0.06;82.08
70839;DHT22;58464;52.298;4.852;2022-11-20T04:19:01;-0.06;82.42
70839;DHT22;58464;52.298;4.852;2022-11-20T04:21:27;0.10;83.87
70839;DHT22;58464;52.298;4.852;2022-11-20T04:23:53;0.13;83.91
70839;DHT22;58464;52.298;4.852;2022-11-20T04:26:19;0.16;83.47
70839;DHT22;58464;52.298;4.852;2022-11-20T04:28:45;0.05;82.01
70839;DHT22;58464;52.298;4.852;2022-11-20T04:31:16;0.17;82.39
70839;DHT22;58464;52.298;4.852;2022-11-20T04:33:41;0.02;81.37
70839;DHT22;58464;52.298;4.852;2022-11-20T04:36:19;0.13;81.99
70839;DHT22;58464;52.298;4.852;2022-11-20T04:38:46;0.09;81.35
70839;DHT22;58464;52.298;4.852;2022-11-20T04:41:18;0.03;81.30
70839;DHT22;58464;52.298;4.852;2022-11-20T04:43:48;0.06;81.49
70839;DHT22;58464;52.298;4.852;2022-11-20T04:46:14;0.02;81.93
70839;DHT22;58464;52.298;4.852;2022-11-20T04:48:40;-0.05;81.60
70839;DHT22;58464;52.298;4.852;2022-11-20T04:51:05;-0.09;81.30
70839;DHT22;58464;52.298;4.852;2022-11-20T04:53:31;-0.19;80.87
70839;DHT22;58464;52.298;4.852;2022-11-20T04:56:00;-0.16;80.41
70839;DHT22;58464;52.298;4.852;2022-11-20T04:58:26;-0.11;81.13
70839;DHT22;58464;52.298;4.852;2022-11-20T05:00:51;-0.15;80.13
70839;DHT22;58464;52.298;4.852;2022-11-20T05:03:17;-0.18;80.53
70839;DHT22;58464;52.298;4.852;2022-11-20T05:05:42;-0.02;81.34
70839;DHT22;58464;52.298;4.852;2022-11-20T05:08:08;-0.06;80.88
70839;DHT22;58464;52.298;4.852;2022-11-20T05:10:33;-0.08;81.30
70839;DHT22;58464;52.298;4.852;2022-11-20T05:12:58;0.07;82.35
70839;DHT22;58464;52.298;4.852;2022-11-20T05:15:24;-0.08;81.64
70839;DHT22;58464;52.298;4.852;2022-11-20T05:17:50;0.02;82.18
70839;DHT22;58464;52.298;4.852;2022-11-20T05:20:15;-0.04;82.29
70839;DHT22;58464;52.298;4.852;2022-11-20T05:22:41;0.01;82.64
70839;DHT22;58464;52.298;4.852;2022-11-20T05:25:07;-0.11;82.19
70839;DHT22;58464;52.298;4.852;2022-11-20T05:27:32;-0.11;82.60
70839;DHT22;58464;52.298;4.852;2022-11-20T05:29:58;-0.23;81.85
70839;DHT22;58464;52.298;4.852;2022-11-20T05:32:23;-0.12;82.73
70839;DHT22;58464;52.298;4.852;2022-11-20T05:34:53;-0.08;82.07
70839;DHT22;58464;52.298;4.852;2022-11-20T05:37:18;-0.14;81.68
70839;DHT22;58464;52.298;4.852;2022-11-20T05:39:44;-0.33;80.88
70839;DHT22;58464;52.298;4.852;2022-11-20T05:42:09;-0.18;82.71
70839;DHT22;58464;52.298;4.852;2022-11-20T05:44:54;-0.21;82.02
70839;DHT22;58464;52.298;4.852;2022-11-20T05:47:20;-0.18;83.16
70839;DHT22;58464;52.298;4.852;2022-11-20T05:49:45;-0.30;81.86
70839;DHT22;58464;52.298;4.852;2022-11-20T05:52:11;-0.33;81.96
70839;DHT22;58464;52.298;4.852;2022-11-20T05:54:36;-0.15;82.31
70839;DHT22;58464;52.298;4.852;2022-11-20T05:57:01;-0.18;81.68
70839;DHT22;58464;52.298;4.852;2022-11-20T05:59:27;-0.18;81.41
70839;DHT22;58464;52.298;4.852;2022-11-20T06:01:52;-0.09;81.96
70839;DHT22;58464;52.298;4.852;2022-11-20T06:04:17;-0.04;82.99
70839;DHT22;58464;52.298;4.852;2022-11-20T06:06:43;-0.16;81.64
70839;DHT22;58464;52.298;4.852;2022-11-20T06:09:08;-0.23;81.61
70839;DHT22;58464;52.298;4.852;2022-11-20T06:11:35;-0.18;81.79
70839;DHT22;58464;52.298;4.852;2022-11-20T06:14:00;-0.11;81.35
70839;DHT22;58464;52.298;4.852;2022-11-20T06:16:26;-0.06;81.53
70839;DHT22;58464;52.298;4.852;2022-11-20T06:18:51;-0.05;80.72
70839;DHT22;58464;52.298;4.852;2022-11-20T06:21:19;0.02;80.92
70839;DHT22;58464;52.298;4.852;2022-11-20T06:23:45;-0.05;80.36
70839;DHT22;58464;52.298;4.852;2022-11-20T06:26:19;-0.04;80.21
70839;DHT22;58464;52.298;4.852;2022-11-20T06:28:45;-0.01;80.72
70839;DHT22;58464;52.298;4.852;2022-11-20T06:31:13;0.06;80.82
70839;DHT22;58464;52.298;4.852;2022-11-20T06:33:40;-0.05;81.05
70839;DHT22;58464;52.298;4.852;2022-11-20T06:36:05;-0.05;80.91
70839;DHT22;58464;52.298;4.852;2022-11-20T06:38:31;-0.05;81.26
70839;DHT22;58464;52.298;4.852;2022-11-20T06:40:56;-0.06;81.74
70839;DHT22;58464;52.298;4.852;2022-11-20T06:43:22;-0.21;80.96
70839;DHT22;58464;52.298;4.852;2022-11-20T06:45:55;-0.01;81.53
70839;DHT22;58464;52.298;4.852;2022-11-20T06:48:22;-0.09;80.46
70839;DHT22;58464;52.298;4.852;2022-11-20T06:50:48;-0.14;80.65
70839;DHT22;58464;52.298;4.852;2022-11-20T06:53:13;-0.21;80.24
70839;DHT22;58464;52.298;4.852;2022-11-20T06:55:46;-0.11;80.77
70839;DHT22;58464;52.298;4.852;2022-11-20T06:58:13;-0.06;80.77
70839;DHT22;58464;52.298;4.852;2022-11-20T07:00:38;-0.08;80.72
70839;DHT22;58464;52.298;4.852;2022-11-20T07:03:05;-0.11;80.09
70839;DHT22;58464;52.298;4.852;2022-11-20T07:05:30;-0.04;81.26
70839;DHT22;58464;52.298;4.852;2022-11-20T07:07:57;-0.11;80.84
70839;DHT22;58464;52.298;4.852;2022-11-20T07:10:23;0.02;81.56
70839;DHT22;58464;52.298;4.852;2022-11-20T07:12:49;-0.11;80.12
70839;DHT22;58464;52.298;4.852;2022-11-20T07:15:16;-0.11;80.49
70839;DHT22;58464;52.298;4.852;2022-11-20T07:17:41;-0.06;79.98
70839;DHT22;58464;52.298;4.852;2022-11-20T07:20:07;0.09;80.65
70839;DHT22;58464;52.298;4.852;2022-11-20T07:22:32;0.27;81.08
70839;DHT22;58464;52.298;4.852;2022-11-20T07:24:57;0.20;79.72
70839;DHT22;58464;52.298;4.852;2022-11-20T07:27:23;0.27;80.58
70839;DHT22;58464;52.298;4.852;2022-11-20T07:29:48;0.39;80.36
70839;DHT22;58464;52.298;4.852;2022-11-20T07:32:14;0.39;79.81
70839;DHT22;58464;52.298;4.852;2022-11-20T07:34:40;0.39;79.73
70839;DHT22;58464;52.298;4.852;2022-11-20T07:37:06;0.46;80.34
70839;DHT22;58464;52.298;4.852;2022-11-20T07:39:31;0.49;80.70
70839;DHT22;58464;52.298;4.852;2022-11-20T07:41:56;0.64;80.53
70839;DHT22;58464;52.298;4.852;2022-11-20T07:44:22;0.60;80.53
70839;DHT22;58464;52.298;4.852;2022-11-20T07:46:47;0.57;80.33
70839;DHT22;58464;52.298;4.852;2022-11-20T07:49:12;0.68;80.72
70839;DHT22;58464;52.298;4.852;2022-11-20T07:51:38;0.85;81.97
70839;DHT22;58464;52.298;4.852;2022-11-20T07:54:03;0.87;80.33
70839;DHT22;58464;52.298;4.852;2022-11-20T07:56:29;0.68;79.72
70839;DHT22;58464;52.298;4.852;2022-11-20T07:58:54;0.78;80.69
70839;DHT22;58464;52.298;4.852;2022-11-20T08:01:20;0.95;80.77
70839;DHT22;58464;52.298;4.852;2022-11-20T08:03:46;1.05;80.42
70839;DHT22;58464;52.298;4.852;2022-11-20T08:06:11;0.95;79.66
70839;DHT22;58464;52.298;4.852;2022-11-20T08:08:36;0.91;79.49
70839;DHT22;58464;52.298;4.852;2022-11-20T08:11:04;1.02;79.06
70839;DHT22;58464;52.298;4.852;2022-11-20T08:13:48;1.21;80.00
70839;DHT22;58464;52.298;4.852;2022-11-20T08:16:32;1.11;78.54
70839;DHT22;58464;52.298;4.852;2022-11-20T08:18:58;1.08;78.01
70839;DHT22;58464;52.298;4.852;2022-11-20T08:21:23;1.06;77.96
70839;DHT22;58464;52.298;4.852;2022-11-20T08:23:49;1.23;77.62
70839;DHT22;58464;52.298;4.852;2022-11-20T08:26:14;1.31;78.04
70839;DHT22;58464;52.298;4.852;2022-11-20T08:28:39;1.21;77.60
70839;DHT22;58464;52.298;4.852;2022-11-20T08:31:05;1.23;77.53
70839;DHT22;58464;52.298;4.852;2022-11-20T08:33:32;1.33;77.70
70839;DHT22;58464;52.298;4.852;2022-11-20T08:36:02;1.28;77.64
70839;DHT22;58464;52.298;4.852;2022-11-20T08:38:29;1.35;77.97
70839;DHT22;58464;52.298;4.852;2022-11-20T08:40:58;1.45;78.18
70839;DHT22;58464;52.298;4.852;2022-11-20T08:43:42;1.59;78.25
70839;DHT22;58464;52.298;4.852;2022-11-20T08:46:07;1.54;78.40
70839;DHT22;58464;52.298;4.852;2022-11-20T08:48:33;1.53;79.00
70839;DHT22;58464;52.298;4.852;2022-11-20T08:50:58;1.52;79.64
70839;DHT22;58464;52.298;4.852;2022-11-20T08:53:25;1.53;79.64
70839;DHT22;58464;52.298;4.852;2022-11-20T08:55:50;1.60;79.75
70839;DHT22;58464;52.298;4.852;2022-11-20T08:58:15;1.67;79.08
70839;DHT22;58464;52.298;4.852;2022-11-20T09:00:41;1.67;78.98
70839;DHT22;58464;52.298;4.852;2022-11-20T09:03:06;1.71;78.95
70839;DHT22;58464;52.298;4.852;2022-11-20T09:05:31;1.91;79.24
70839;DHT22;58464;52.298;4.852;2022-11-20T09:07:58;1.87;78.61
70839;DHT22;58464;52.298;4.852;2022-11-20T09:10:24;1.87;78.51
70839;DHT22;58464;52.298;4.852;2022-11-20T09:12:49;1.90;78.65
70839;DHT22;58464;52.298;4.852;2022-11-20T09:15:18;1.84;78.12
70839;DHT22;58464;52.298;4.852;2022-11-20T09:17:53;2.00;78.34
70839;DHT22;58464;52.298;4.852;2022-11-20T09:20:19;2.01;77.98
70839;DHT22;58464;52.298;4.852;2022-11-20T09:22:45;2.15;78.33
70839;DHT22;58464;52.298;4.852;2022-11-20T09:25:10;2.22;77.73
70839;DHT22;58464;52.298;4.852;2022-11-20T09:27:35;2.22;76.78
70839;DHT22;58464;52.298;4.852;2022-11-20T09:30:01;2.36;76.51
70839;DHT22;58464;52.298;4.852;2022-11-20T09:32:28;2.45;75.80
70839;DHT22;58464;52.298;4.852;2022-11-20T09:34:53;2.42;74.96
70839;DHT22;58464;52.298;4.852;2022-11-20T09:37:19;2.59;74.20
70839;DHT22;58464;52.298;4.852;2022-11-20T09:39:44;2.59;74.44
70839;DHT22;58464;52.298;4.852;2022-11-20T09:48:10;2.66;73.98
70839;DHT22;58464;52.298;4.852;2022-11-20T09:56:19;3.00;72.73
70839;DHT22;58464;52.298;4.852;2022-11-20T09:58:48;2.99;72.28
70839;DHT22;58464;52.298;4.852;2022-11-20T10:01:20;2.99;72.54
70839;DHT22;58464;52.298;4.852;2022-11-20T10:09:38;3.24;73.19
70839;DHT22;58464;52.298;4.852;2022-11-20T10:12:21;3.42;73.49
70839;DHT22;58464;52.298;4.852;2022-11-20T10:17:34;3.31;73.76
70839;DHT22;58464;52.298;4.852;2022-11-20T10:29:05;3.24;75.58
70839;DHT22;58464;52.298;4.852;2022-11-20T10:31:38;3.31;75.47
70839;DHT22;58464;52.298;4.852;2022-11-20T10:34:25;3.27;76.04
70839;DHT22;58464;52.298;4.852;2022-11-20T10:37:00;3.21;75.89
70839;DHT22;58464;52.298;4.852;2022-11-20T10:39:35;3.30;76.20
70839;DHT22;58464;52.298;4.852;2022-11-20T10:42:01;3.27;75.91
70839;DHT22;58464;52.298;4.852;2022-11-20T10:44:28;3.35;76.24
70839;DHT22;58464;52.298;4.852;2022-11-20T10:47:15;3.41;76.27
70839;DHT22;58464;52.298;4.852;2022-11-20T10:49:43;3.39;75.64
70839;DHT22;58464;52.298;4.852;2022-11-20T10:52:16;3.28;75.55
70839;DHT22;58464;52.298;4.852;2022-11-20T10:54:54;3.31;76.06
70839;DHT22;58464;52.298;4.852;2022-11-20T10:59:55;3.30;76.23
70839;DHT22;58464;52.298;4.852;2022-11-20T11:02:34;3.28;76.77
70839;DHT22;58464;52.298;4.852;2022-11-20T11:05:10;3.28;76.43
70839;DHT22;58464;52.298;4.852;2022-11-20T11:07:39;3.31;76.68
70839;DHT22;58464;52.298;4.852;2022-11-20T11:10:18;3.34;77.08
70839;DHT22;58464;52.298;4.852;2022-11-20T11:12:45;3.28;77.11
70839;DHT22;58464;52.298;4.852;2022-11-20T11:15:24;3.36;77.15
70839;DHT22;58464;52.298;4.852;2022-11-20T11:17:49;3.31;77.52
70839;DHT22;58464;52.298;4.852;2022-11-20T11:20:16;3.36;77.37
70839;DHT22;58464;52.298;4.852;2022-11-20T11:22:51;3.44;77.69
70839;DHT22;58464;52.298;4.852;2022-11-20T11:27:48;3.48;76.99
70839;DHT22;58464;52.298;4.852;2022-11-20T11:30:16;3.35;76.95
70839;DHT22;58464;52.298;4.852;2022-11-20T11:32:42;3.41;77.24
70839;DHT22;58464;52.298;4.852;2022-11-20T11:35:27;3.51;77.52
70839;DHT22;58464;52.298;4.852;2022-11-20T11:38:01;3.52;77.71
70839;DHT22;58464;52.298;4.852;2022-11-20T11:40:28;3.58;77.98
70839;DHT22;58464;52.298;4.852;2022-11-20T11:43:01;3.62;78.74
70839;DHT22;58464;52.298;4.852;2022-11-20T11:45:28;3.59;78.87
70839;DHT22;58464;52.298;4.852;2022-11-20T11:47:55;3.62;79.51
70839;DHT22;58464;52.298;4.852;2022-11-20T11:50:24;3.65;79.72
70839;DHT22;58464;52.298;4.852;2022-11-20T11:58:44;3.52;81.24
70839;DHT22;58464;52.298;4.852;2022-11-20T12:01:31;3.59;81.21
70839;DHT22;58464;52.298;4.852;2022-11-20T12:06:43;3.46;81.66
70839;DHT22;58464;52.298;4.852;2022-11-20T12:09:11;3.45;82.13
70839;DHT22;58464;52.298;4.852;2022-11-20T12:14:40;3.51;82.05
70839;DHT22;58464;52.298;4.852;2022-11-20T12:17:10;3.59;82.07
70839;DHT22;58464;52.298;4.852;2022-11-20T12:19:35;3.54;82.31
70839;DHT22;58464;52.298;4.852;2022-11-20T12:30:41;3.50;82.83
70839;DHT22;58464;52.298;4.852;2022-11-20T12:33:30;3.46;83.39
70839;DHT22;58464;52.298;4.852;2022-11-20T12:36:49;3.48;83.19
70839;DHT22;58464;52.298;4.852;2022-11-20T12:42:10;3.50;83.89
70839;DHT22;58464;52.298;4.852;2022-11-20T12:47:51;3.50;84.17
70839;DHT22;58464;52.298;4.852;2022-11-20T12:53:22;3.39;84.85
70839;DHT22;58464;52.298;4.852;2022-11-20T12:56:05;3.45;85.18
70839;DHT22;58464;52.298;4.852;2022-11-20T12:58:43;3.45;84.86
70839;DHT22;58464;52.298;4.852;2022-11-20T13:01:29;3.44;85.33
70839;DHT22;58464;52.298;4.852;2022-11-20T13:07:11;3.41;86.41
70839;DHT22;58464;52.298;4.852;2022-11-20T13:09:42;3.38;86.43
70839;DHT22;58464;52.298;4.852;2022-11-20T13:14:52;3.41;86.94
70839;DHT22;58464;52.298;4.852;2022-11-20T13:17:42;3.45;86.71
70839;DHT22;58464;52.298;4.852;2022-11-20T13:20:14;3.48;86.85
70839;DHT22;58464;52.298;4.852;2022-11-20T13:22:45;3.46;86.94
70839;DHT22;58464;52.298;4.852;2022-11-20T13:25:23;3.45;87.04
70839;DHT22;58464;52.298;4.852;2022-11-20T13:27:49;3.41;87.14
70839;DHT22;58464;52.298;4.852;2022-11-20T13:30:18;3.41;87.41
70839;DHT22;58464;52.298;4.852;2022-11-20T13:32:55;3.39;87.46
70839;DHT22;58464;52.298;4.852;2022-11-20T13:35:54;3.28;87.54
70839;DHT22;58464;52.298;4.852;2022-11-20T13:38:14;3.42;88.16
70839;DHT22;58464;52.298;4.852;2022-11-20T13:40:58;3.41;88.13
70839;DHT22;58464;52.298;4.852;2022-11-20T13:43:46;3.32;87.99
70839;DHT22;58464;52.298;4.852;2022-11-20T13:46:12;3.30;88.22
70839;DHT22;58464;52.298;4.852;2022-11-20T13:48:40;3.34;88.71
70839;DHT22;58464;52.298;4.852;2022-11-20T14:02:18;3.46;88.78
70839;DHT22;58464;52.298;4.852;2022-11-20T14:04:47;3.52;89.08
70839;DHT22;58464;52.298;4.852;2022-11-20T14:07:14;3.48;88.87
70839;DHT22;58464;52.298;4.852;2022-11-20T14:09:52;3.50;88.70
70839;DHT22;58464;52.298;4.852;2022-11-20T14:12:20;3.46;88.95
70839;DHT22;58464;52.298;4.852;2022-11-20T14:14:53;3.52;89.10
70839;DHT22;58464;52.298;4.852;2022-11-20T14:19:54;3.45;89.07
70839;DHT22;58464;52.298;4.852;2022-11-20T14:22:24;3.48;89.26
70839;DHT22;58464;52.298;4.852;2022-11-20T14:27:39;3.54;89.79
70839;DHT22;58464;52.298;4.852;2022-11-20T14:30:11;3.44;89.75
70839;DHT22;58464;52.298;4.852;2022-11-20T14:32:38;3.46;90.09
70839;DHT22;58464;52.298;4.852;2022-11-20T14:35:08;3.46;90.27
70839;DHT22;58464;52.298;4.852;2022-11-20T14:37:37;3.46;90.23
70839;DHT22;58464;52.298;4.852;2022-11-20T14:40:21;3.45;90.26
70839;DHT22;58464;52.298;4.852;2022-11-20T14:42:47;3.50;90.45
70839;DHT22;58464;52.298;4.852;2022-11-20T14:45:12;3.51;90.33
70839;DHT22;58464;52.298;4.852;2022-11-20T14:47:38;3.51;90.34
70839;DHT22;58464;52.298;4.852;2022-11-20T14:50:12;3.48;90.20
70839;DHT22;58464;52.298;4.852;2022-11-20T14:52:38;3.48;90.39
70839;DHT22;58464;52.298;4.852;2022-11-20T14:55:03;3.46;90.63
70839;DHT22;58464;52.298;4.852;2022-11-20T14:57:34;3.48;90.68
70839;DHT22;58464;52.298;4.852;2022-11-20T15:00:19;3.48;90.72
70839;DHT22;58464;52.298;4.852;2022-11-20T15:02:48;3.52;90.98
70839;DHT22;58464;52.298;4.852;2022-11-20T15:05:14;3.50;91.10
70839;DHT22;58464;52.298;4.852;2022-11-20T15:07:43;3.48;91.36
70839;DHT22;58464;52.298;4.852;2022-11-20T15:10:25;3.46;91.22
70839;DHT22;58464;52.298;4.852;2022-11-20T15:15:50;3.52;91.34
70839;DHT22;58464;52.298;4.852;2022-11-20T15:18:18;3.45;91.36
70839;DHT22;58464;52.298;4.852;2022-11-20T15:20:46;3.42;91.53
70839;DHT22;58464;52.298;4.852;2022-11-20T15:23:13;3.45;91.82
70839;DHT22;58464;52.298;4.852;2022-11-20T15:25:42;3.48;91.88
70839;DHT22;58464;52.298;4.852;2022-11-20T15:28:18;3.48;91.81
70839;DHT22;58464;52.298;4.852;2022-11-20T15:30:45;3.46;91.90
70839;DHT22;58464;52.298;4.852;2022-11-20T15:33:11;3.50;92.08
70839;DHT22;58464;52.298;4.852;2022-11-20T15:35:37;3.52;92.23
70839;DHT22;58464;52.298;4.852;2022-11-20T15:38:03;3.55;92.39
70839;DHT22;58464;52.298;4.852;2022-11-20T15:40:28;3.55;92.05
70839;DHT22;58464;52.298;4.852;2022-11-20T15:42:53;3.48;91.96
70839;DHT22;58464;52.298;4.852;2022-11-20T15:45:31;3.48;91.76
70839;DHT22;58464;52.298;4.852;2022-11-20T15:47:59;3.50;91.99
70839;DHT22;58464;52.298;4.852;2022-11-20T15:50:29;3.41;91.87
70839;DHT22;58464;52.298;4.852;2022-11-20T15:52:55;3.48;92.20
70839;DHT22;58464;52.298;4.852;2022-11-20T15:55:20;3.51;92.14
70839;DHT22;58464;52.298;4.852;2022-11-20T15:57:45;3.52;92.33
70839;DHT22;58464;52.298;4.852;2022-11-20T16:00:11;3.54;92.49
70839;DHT22;58464;52.298;4.852;2022-11-20T16:02:37;3.46;92.01
70839;DHT22;58464;52.298;4.852;2022-11-20T16:05:02;3.52;92.10
70839;DHT22;58464;52.298;4.852;2022-11-20T16:07:28;3.52;92.22
70839;DHT22;58464;52.298;4.852;2022-11-20T16:09:53;3.52;92.36
70839;DHT22;58464;52.298;4.852;2022-11-20T16:12:20;3.66;92.65
70839;DHT22;58464;52.298;4.852;2022-11-20T16:15:05;3.59;92.48
70839;DHT22;58464;52.298;4.852;2022-11-20T16:17:49;3.69;92.92
70839;DHT22;58464;52.298;4.852;2022-11-20T16:20:15;3.71;92.95
70839;DHT22;58464;52.298;4.852;2022-11-20T16:22:40;3.69;92.83
70839;DHT22;58464;52.298;4.852;2022-11-20T16:25:06;3.69;92.82
70839;DHT22;58464;52.298;4.852;2022-11-20T16:27:32;3.71;92.63
70839;DHT22;58464;52.298;4.852;2022-11-20T16:29:57;3.72;92.85
70839;DHT22;58464;52.298;4.852;2022-11-20T16:32:22;3.71;92.48
70839;DHT22;58464;52.298;4.852;2022-11-20T16:34:49;3.66;92.38
70839;DHT22;58464;52.298;4.852;2022-11-20T16:37:14;3.69;92.76
70839;DHT22;58464;52.298;4.852;2022-11-20T16:39:39;3.71;92.82
70839;DHT22;58464;52.298;4.852;2022-11-20T16:42:05;3.73;93.02
70839;DHT22;58464;52.298;4.852;2022-11-20T16:44:30;3.69;92.82
70839;DHT22;58464;52.298;4.852;2022-11-20T16:46:55;3.68;92.88
70839;DHT22;58464;52.298;4.852;2022-11-20T16:49:21;3.66;92.66
70839;DHT22;58464;52.298;4.852;2022-11-20T16:51:46;3.68;92.76
70839;DHT22;58464;52.298;4.852;2022-11-20T16:54:12;3.73;92.77
70839;DHT22;58464;52.298;4.852;2022-11-20T16:56:37;3.76;92.80
70839;DHT22;58464;52.298;4.852;2022-11-20T16:59:04;3.79;92.85
70839;DHT22;58464;52.298;4.852;2022-11-20T17:01:29;3.78;92.75
70839;DHT22;58464;52.298;4.852;2022-11-20T17:06:23;3.83;92.64
70839;DHT22;58464;52.298;4.852;2022-11-20T17:08:48;3.79;92.79
70839;DHT22;58464;52.298;4.852;2022-11-20T17:11:16;3.75;92.66
70839;DHT22;58464;52.298;4.852;2022-11-20T17:13:42;3.83;92.74
70839;DHT22;58464;52.298;4.852;2022-11-20T17:16:10;3.79;92.69
70839;DHT22;58464;52.298;4.852;2022-11-20T17:18:36;3.83;92.70
70839;DHT22;58464;52.298;4.852;2022-11-20T17:21:01;3.89;92.96
70839;DHT22;58464;52.298;4.852;2022-11-20T17:23:31;3.87;92.73
70839;DHT22;58464;52.298;4.852;2022-11-20T17:26:05;3.90;93.04